Torm Amalie — 9V8552 — position and weather

sailwx.info

Track history (hours):
 
Tides and Currents Weather Stations Pressure Air Temp Water Temp Dewpoint Dewpoint Depression Visibility Wind Speed Wind Dir Waves Ship Positions

Torm Amalie

Last reported at 2018-May-03 10:10 UTC. Time now 2018-Jun-18 17:37 UTC.
Position N 41°38' E 141°21'.
Warning: this ship's position is 46 days out of date.

Length 183 m; draft 10.8 m.

Type: Ship. MMSI: 564081000.

Date/timePositionNaut miles runAvg speedWind from/ knotsBaromVisibWave heightAir tempDewpointWater temp
2018-May-03 10:10N 41°38' E 141°21'213.0
2018-May-03 10:00N 41°37' E 141°18'612.8
2018-May-03 09:30N 41°37' E 141°10'815.8
2018-May-03 09:00N 41°38' E 140°59'815.3
2018-May-03 08:30N 41°37' E 140°49'815.1
2018-May-03 08:00N 41°33' E 140°41'714.6
2018-May-03 07:30N 41°29' E 140°33'815.1
2018-May-03 07:01N 41°24' E 140°25'916.7
2018-May-03 06:27N 41°19' E 140°15'63813.1
2018-May-01 05:41N 34°53' E 129°29'314.2
2018-May-01 05:30N 34°51' E 129°26'714.6
2018-May-01 05:00N 34°47' E 129°20'714.5
2018-May-01 04:30N 34°41' E 129°14'  
2018-Apr-28 04:41N 34°01' E 127°47'313.1
2018-Apr-28 04:28N 33°58' E 127°45'813.5
2018-Apr-28 03:50N 33°51' E 127°39'  
2018-Apr-25 11:42N 38°52' E 122°02'7 0.2
2018-Apr-23 15:13N 38°58' E 121°57'2 8.4
2018-Apr-23 15:00N 38°57' E 121°58'  
Track history (hours):
 
Tides and Currents Weather Stations Pressure Air Temp Water Temp Dewpoint Dewpoint Depression Visibility Wind Speed Wind Dir Waves Ship Positions

Torm Amalie

Last reported at 2018-May-03 10:10 UTC. Time now 2018-Jun-18 17:37 UTC.
Position N 41°38' E 141°21'.
Warning: this ship's position is 46 days out of date.

Length 183 m; draft 10.8 m.

Type: Ship. MMSI: 564081000.

Date/timePositionNaut miles runAvg speedWind from/ knotsBaromVisibWave heightAir tempDewpointWater temp
2018-May-03 10:10N 41°38' E 141°21'213.0
2018-May-03 10:00N 41°37' E 141°18'612.8
2018-May-03 09:30N 41°37' E 141°10'815.8
2018-May-03 09:00N 41°38' E 140°59'815.3
2018-May-03 08:30N 41°37' E 140°49'815.1
2018-May-03 08:00N 41°33' E 140°41'714.6
2018-May-03 07:30N 41°29' E 140°33'815.1
2018-May-03 07:01N 41°24' E 140°25'916.7
2018-May-03 06:27N 41°19' E 140°15'63813.1
2018-May-01 05:41N 34°53' E 129°29'314.2
2018-May-01 05:30N 34°51' E 129°26'714.6
2018-May-01 05:00N 34°47' E 129°20'714.5
2018-May-01 04:30N 34°41' E 129°14'  
2018-Apr-28 04:41N 34°01' E 127°47'313.1
2018-Apr-28 04:28N 33°58' E 127°45'813.5
2018-Apr-28 03:50N 33°51' E 127°39'  
2018-Apr-25 11:42N 38°52' E 122°02'7 0.2
2018-Apr-23 15:13N 38°58' E 121°57'2 8.4
2018-Apr-23 15:00N 38°57' E 121°58'  

Dump ship's entire track history